Time;durP1;ratioP1;P1;durP2;ratioP2;P2;SDS_P1;SDS_P2;PMS_P1;PMS_P2;Temp;Humidity;BMP_temperature;BMP_pressure;BME280_temperature;BME280_humidity;BME280_pressure;Samples;Min_cycle;Max_cycle;Signal;HPM_P1;HPM_P2
2021/08/25 00:02:09;;;;;;;12.73;11.50;;;14.60;99.90;;;;;;4941591;29;20453;-82
2021/08/25 00:04:37;;;;;;;13.10;11.80;;;14.50;99.90;;;;;;4942412;29;20453;-82
2021/08/25 00:07:06;;;;;;;15.00;13.60;;;14.40;99.90;;;;;;4940857;29;20976;-81
2021/08/25 00:09:34;;;;;;;13.40;12.20;;;14.30;99.90;;;;;;4939826;29;20505;-81
2021/08/25 00:12:00;;;;;;;12.73;11.47;;;14.30;99.90;;;;;;4939296;29;20454;-82
2021/08/25 00:14:27;;;;;;;13.70;12.37;;;14.30;99.90;;;;;;4942524;29;20454;-82
2021/08/25 00:16:54;;;;;;;17.80;13.23;;;14.20;99.90;;;;;;4941939;29;20479;-82
2021/08/25 00:19:21;;;;;;;14.83;13.30;;;14.10;99.90;;;;;;4942313;29;20513;-83
2021/08/25 00:21:49;;;;;;;15.20;13.70;;;14.10;99.90;;;;;;4941681;29;20984;-83
2021/08/25 00:24:16;;;;;;;14.93;13.50;;;14.10;99.90;;;;;;4943080;29;20457;-82
2021/08/25 00:26:46;;;;;;;14.70;13.30;;;14.10;99.90;;;;;;4941579;29;20449;-81
2021/08/25 00:29:12;;;;;;;14.30;12.90;;;14.00;99.90;;;;;;4940956;29;20568;-82
2021/08/25 00:31:39;;;;;;;15.53;14.13;;;13.90;99.90;;;;;;4949222;23;20507;-82
2021/08/25 00:34:06;;;;;;;13.67;12.47;;;13.90;99.90;;;;;;4943954;29;20446;-81
2021/08/25 00:36:33;;;;;;;16.23;13.43;;;14.00;99.90;;;;;;4938873;29;20460;-82
2021/08/25 00:39:01;;;;;;;14.17;12.63;;;13.90;99.90;;;;;;4939934;29;20489;-82
2021/08/25 00:41:28;;;;;;;14.43;13.33;;;14.00;99.90;;;;;;4938383;29;20484;-81
2021/08/25 00:43:54;;;;;;;14.93;13.10;;;14.00;99.90;;;;;;4939605;29;20476;-82
2021/08/25 00:46:21;;;;;;;14.17;12.77;;;13.90;99.90;;;;;;4939795;29;20462;-81
2021/08/25 00:48:48;;;;;;;13.33;12.10;;;13.70;99.90;;;;;;4943879;29;20965;-81
2021/08/25 00:51:15;;;;;;;16.20;14.53;;;13.80;99.90;;;;;;4946733;29;21007;-81
2021/08/25 00:53:43;;;;;;;15.00;13.40;;;13.70;99.90;;;;;;4946638;29;20454;-82
2021/08/25 00:56:11;;;;;;;14.10;12.80;;;13.70;99.90;;;;;;4947008;29;20953;-82
2021/08/25 00:58:39;;;;;;;14.70;13.50;;;13.60;99.90;;;;;;4945629;29;20494;-83
2021/08/25 01:01:08;;;;;;;15.00;13.60;;;13.60;99.90;;;;;;4946532;29;20472;-82
2021/08/25 01:03:41;;;;;;;19.30;14.77;;;13.60;99.90;;;;;;4941089;29;20501;-82
2021/08/25 01:06:09;;;;;;;15.83;14.27;;;13.60;99.90;;;;;;4940831;29;20476;-82
2021/08/25 01:08:36;;;;;;;14.80;13.30;;;13.50;99.90;;;;;;4943409;29;20453;-82
2021/08/25 01:11:07;;;;;;;13.60;12.33;;;13.50;99.90;;;;;;4942539;29;20480;-82
2021/08/25 01:13:35;;;;;;;13.73;12.43;;;13.50;99.90;;;;;;4942399;29;20453;-82
2021/08/25 01:16:02;;;;;;;13.00;11.80;;;13.50;99.90;;;;;;4943016;29;20446;-82
2021/08/25 01:18:29;;;;;;;14.77;13.37;;;13.50;99.90;;;;;;4943276;29;20485;-83
2021/08/25 01:20:59;;;;;;;15.03;13.50;;;13.50;99.90;;;;;;4942998;29;20485;-82
2021/08/25 01:23:26;;;;;;;15.60;13.53;;;13.50;99.90;;;;;;4941712;29;20465;-82
2021/08/25 01:25:56;;;;;;;15.63;13.73;;;13.50;99.90;;;;;;4942569;29;20449;-83
2021/08/25 01:28:26;;;;;;;16.10;14.37;;;13.50;99.90;;;;;;4941737;29;20452;-83
2021/08/25 01:30:54;;;;;;;15.10;13.50;;;13.50;99.90;;;;;;4941572;29;20842;-82
2021/08/25 01:33:22;;;;;;;16.80;15.20;;;13.50;99.90;;;;;;4939132;29;20457;-81
2021/08/25 01:35:49;;;;;;;14.67;12.73;;;13.40;99.90;;;;;;4938410;29;20464;-82
2021/08/25 01:38:24;;;;;;;15.07;13.40;;;13.30;99.90;;;;;;4938046;29;20498;-81
2021/08/25 01:40:51;;;;;;;12.90;11.70;;;13.30;99.90;;;;;;4938491;29;20484;-82
2021/08/25 01:43:17;;;;;;;14.70;13.50;;;13.30;99.90;;;;;;4937556;29;20458;-82
2021/08/25 01:45:44;;;;;;;16.40;14.57;;;13.30;99.90;;;;;;4938404;29;20460;-81
2021/08/25 01:48:12;;;;;;;14.27;12.73;;;13.30;99.90;;;;;;4937586;29;20477;-81
2021/08/25 01:50:40;;;;;;;15.47;13.97;;;13.30;99.90;;;;;;4940879;29;20857;-83
2021/08/25 01:53:07;;;;;;;16.50;13.87;;;13.30;99.90;;;;;;4942887;29;20461;-82
2021/08/25 01:55:34;;;;;;;15.00;13.53;;;13.20;99.90;;;;;;4943346;29;20457;-83
2021/08/25 01:58:01;;;;;;;15.97;14.37;;;13.20;99.90;;;;;;4942190;29;20457;-82
2021/08/25 02:00:27;;;;;;;14.27;12.97;;;13.10;99.90;;;;;;4942405;29;20552;-82
2021/08/25 02:02:54;;;;;;;14.57;13.13;;;13.10;99.90;;;;;;4941823;29;20458;-81
2021/08/25 02:05:22;;;;;;;16.23;14.63;;;13.00;99.90;;;;;;4942830;29;20460;-83
2021/08/25 02:07:49;;;;;;;16.63;15.03;;;12.90;99.90;;;;;;4943337;29;20460;-83
2021/08/25 02:10:16;;;;;;;16.50;14.80;;;12.80;99.90;;;;;;4942971;29;20458;-83
2021/08/25 02:12:43;;;;;;;16.00;14.33;;;12.60;99.90;;;;;;4940003;29;20457;-82
2021/08/25 02:15:10;;;;;;;16.37;14.67;;;12.60;99.90;;;;;;4938275;29;20461;-82
2021/08/25 02:17:37;;;;;;;16.03;14.40;;;12.50;99.90;;;;;;4937703;29;20453;-81
2021/08/25 02:20:04;;;;;;;15.90;14.30;;;12.60;99.90;;;;;;4940278;29;20489;-83
2021/08/25 02:22:32;;;;;;;16.10;14.47;;;12.60;99.90;;;;;;4941174;29;20558;-82
2021/08/25 02:24:59;;;;;;;15.77;14.20;;;12.60;99.90;;;;;;4942874;29;20464;-81
2021/08/25 02:27:25;;;;;;;16.90;15.20;;;12.60;99.90;;;;;;4941579;29;20456;-83
2021/08/25 02:29:56;;;;;;;15.63;14.20;;;12.60;99.90;;;;;;4942971;29;20453;-83
2021/08/25 02:32:23;;;;;;;17.33;15.17;;;12.70;99.90;;;;;;4941517;29;20476;-82
2021/08/25 02:34:50;;;;;;;18.00;14.30;;;12.60;99.90;;;;;;4942471;29;20467;-83
2021/08/25 02:37:16;;;;;;;15.30;13.03;;;12.60;99.90;;;;;;4943496;29;20467;-82
2021/08/25 02:39:45;;;;;;;15.73;14.23;;;12.60;99.90;;;;;;4943173;29;20518;-82
2021/08/25 02:42:11;;;;;;;16.57;14.90;;;12.50;99.90;;;;;;4943541;29;20476;-82
2021/08/25 02:44:39;;;;;;;17.30;15.70;;;12.50;99.90;;;;;;4942990;29;20463;-83
2021/08/25 02:47:06;;;;;;;17.63;15.73;;;12.50;99.90;;;;;;4945084;29;20466;-83
2021/08/25 02:49:33;;;;;;;16.27;14.70;;;12.40;99.90;;;;;;4943608;29;20863;-83
2021/08/25 02:52:00;;;;;;;17.40;15.60;;;12.40;99.90;;;;;;4943082;29;20634;-82
2021/08/25 02:54:26;;;;;;;20.80;15.43;;;12.40;99.90;;;;;;4944425;29;20464;-83
2021/08/25 02:56:54;;;;;;;17.67;15.80;;;12.40;99.90;;;;;;4947324;29;20463;-83
2021/08/25 02:59:21;;;;;;;17.37;15.67;;;12.40;99.90;;;;;;4946763;29;20495;-83
2021/08/25 03:01:48;;;;;;;18.37;16.53;;;12.40;99.90;;;;;;4946816;29;20473;-83
2021/08/25 03:04:15;;;;;;;17.20;15.60;;;12.40;99.90;;;;;;4949737;29;20463;-83
2021/08/25 03:06:42;;;;;;;16.63;14.30;;;12.50;99.90;;;;;;4951545;29;20456;-82
2021/08/25 03:09:09;;;;;;;19.13;15.83;;;12.50;99.90;;;;;;4947545;29;20463;-82
2021/08/25 03:11:35;;;;;;;18.47;16.60;;;12.40;99.90;;;;;;4946036;29;20480;-82
2021/08/25 03:14:04;;;;;;;17.23;15.43;;;12.40;99.90;;;;;;4947538;29;20448;-83
2021/08/25 03:16:31;;;;;;;19.03;17.03;;;12.50;99.90;;;;;;4948483;29;20460;-83
2021/08/25 03:18:58;;;;;;;18.23;16.43;;;12.40;99.90;;;;;;4949130;29;20493;-83
2021/08/25 03:21:24;;;;;;;20.03;17.53;;;12.60;99.90;;;;;;4950974;29;20473;-83
2021/08/25 03:23:51;;;;;;;17.47;15.60;;;12.40;99.90;;;;;;4949814;29;20464;-82
2021/08/25 03:26:18;;;;;;;18.50;16.50;;;12.40;99.90;;;;;;4950634;29;20457;-83
2021/08/25 03:28:45;;;;;;;18.47;16.07;;;12.50;99.90;;;;;;4949474;29;20460;-82
2021/08/25 03:31:13;;;;;;;17.07;15.20;;;12.50;99.90;;;;;;4950804;29;20485;-82
2021/08/25 03:33:40;;;;;;;17.87;16.03;;;12.50;99.90;;;;;;4948867;29;20457;-83
2021/08/25 03:36:06;;;;;;;18.17;16.27;;;12.40;99.90;;;;;;4949174;29;20838;-83
2021/08/25 03:38:33;;;;;;;16.43;14.77;;;12.40;99.90;;;;;;4949521;29;20457;-81
2021/08/25 03:41:00;;;;;;;16.73;14.87;;;12.50;99.90;;;;;;4946482;29;21136;-81
2021/08/25 03:43:27;;;;;;;20.37;16.60;;;12.50;99.90;;;;;;4944642;29;20458;-82
2021/08/25 03:45:53;;;;;;;20.13;16.50;;;12.50;99.90;;;;;;4946869;29;20457;-81
2021/08/25 03:48:21;;;;;;;18.57;16.67;;;12.50;99.90;;;;;;4946216;29;20471;-82
2021/08/25 03:50:48;;;;;;;18.17;16.20;;;12.40;99.90;;;;;;4946712;29;20490;-82
2021/08/25 03:53:15;;;;;;;18.00;16.27;;;12.40;99.90;;;;;;4945467;29;20802;-83
2021/08/25 03:55:42;;;;;;;21.10;18.83;;;12.30;99.90;;;;;;4946893;29;20464;-81
2021/08/25 03:58:09;;;;;;;16.80;15.17;;;12.20;99.90;;;;;;4946519;29;20453;-82
2021/08/25 04:00:36;;;;;;;20.43;18.23;;;12.10;99.90;;;;;;4945389;29;20500;-81
2021/08/25 04:03:03;;;;;;;18.30;16.40;;;12.10;99.90;;;;;;4946647;29;20457;-82
2021/08/25 04:05:31;;;;;;;21.27;17.50;;;12.00;99.90;;;;;;4945278;29;20465;-82
2021/08/25 04:07:57;;;;;;;18.17;16.33;;;12.00;99.90;;;;;;4946129;29;20444;-82
2021/08/25 04:10:24;;;;;;;19.47;17.47;;;12.00;99.90;;;;;;4946756;29;20483;-81
2021/08/25 04:12:51;;;;;;;22.43;20.07;;;11.90;99.90;;;;;;4945801;29;20945;-82
2021/08/25 04:15:18;;;;;;;21.67;17.87;;;11.80;99.90;;;;;;4947489;29;20457;-82
2021/08/25 04:17:45;;;;;;;20.37;18.17;;;11.70;99.90;;;;;;4946761;29;20488;-82
2021/08/25 04:20:13;;;;;;;26.73;18.20;;;11.70;99.90;;;;;;4947096;29;20502;-83
2021/08/25 04:22:41;;;;;;;20.50;18.30;;;11.70;99.90;;;;;;4946143;29;20456;-82
2021/08/25 04:25:09;;;;;;;21.90;19.43;;;11.80;99.90;;;;;;4948093;29;20460;-82
2021/08/25 04:27:35;;;;;;;20.37;16.77;;;11.80;99.90;;;;;;4947725;29;20450;-83
2021/08/25 04:30:02;;;;;;;19.77;17.67;;;11.70;99.90;;;;;;4944488;29;20496;-81
2021/08/25 04:32:29;;;;;;;23.53;19.00;;;11.70;99.90;;;;;;4943335;29;20485;-83
2021/08/25 04:34:56;;;;;;;22.30;17.70;;;11.70;99.90;;;;;;4944234;29;20452;-81
2021/08/25 04:37:23;;;;;;;21.17;18.80;;;11.70;99.90;;;;;;4944796;29;20453;-82
2021/08/25 04:39:51;;;;;;;19.97;16.73;;;11.70;99.90;;;;;;4945549;29;20479;-82
2021/08/25 04:42:17;;;;;;;22.83;17.03;;;11.70;99.90;;;;;;4944591;29;20524;-83
2021/08/25 04:44:44;;;;;;;21.90;17.13;;;11.80;99.90;;;;;;4944330;29;20461;-82
2021/08/25 04:47:11;;;;;;;19.10;17.00;;;11.90;99.90;;;;;;4942717;29;20456;-81
2021/08/25 04:49:37;;;;;;;19.93;17.83;;;11.90;99.90;;;;;;4942891;29;20495;-82
2021/08/25 04:52:05;;;;;;;22.73;19.90;;;11.90;99.90;;;;;;4942464;29;20491;-82
2021/08/25 04:54:31;;;;;;;21.30;18.87;;;11.80;99.90;;;;;;4946248;29;20542;-84
2021/08/25 04:56:59;;;;;;;21.13;18.93;;;11.70;99.90;;;;;;4942137;29;20460;-82
2021/08/25 04:59:26;;;;;;;23.27;20.50;;;11.70;99.90;;;;;;4940764;29;20449;-82
2021/08/25 05:01:53;;;;;;;23.63;20.47;;;11.70;99.90;;;;;;4940654;29;20482;-82
2021/08/25 05:04:19;;;;;;;24.17;20.47;;;11.70;99.90;;;;;;4943053;29;20452;-84
2021/08/25 05:06:46;;;;;;;23.23;18.17;;;11.70;99.90;;;;;;4941427;29;20468;-82
2021/08/25 05:09:13;;;;;;;23.37;21.00;;;11.70;99.90;;;;;;4942091;29;20860;-83
2021/08/25 05:11:39;;;;;;;23.23;18.30;;;11.70;99.90;;;;;;4940891;29;20485;-82
2021/08/25 05:14:08;;;;;;;20.87;18.67;;;11.80;99.90;;;;;;4940395;29;20460;-83
2021/08/25 05:16:34;;;;;;;22.43;20.13;;;11.80;99.90;;;;;;4941071;29;20479;-82
2021/08/25 05:19:01;;;;;;;24.13;21.77;;;11.70;99.90;;;;;;4941419;29;20465;-83
2021/08/25 05:21:28;;;;;;;25.57;21.60;;;11.70;99.90;;;;;;4940996;29;21007;-85
2021/08/25 05:23:55;;;;;;;25.07;19.30;;;11.70;99.90;;;;;;4941034;29;20464;-84
2021/08/25 05:26:21;;;;;;;26.30;20.20;;;11.70;99.90;;;;;;4937561;29;20460;-83
2021/08/25 05:28:48;;;;;;;20.83;18.67;;;11.80;99.90;;;;;;4937840;29;20457;-83
2021/08/25 05:31:16;;;;;;;24.17;19.10;;;11.90;99.90;;;;;;4937803;29;20498;-83
2021/08/25 05:33:43;;;;;;;21.30;19.20;;;12.00;99.90;;;;;;4936448;29;20457;-83
2021/08/25 05:36:09;;;;;;;25.03;22.10;;;12.10;99.90;;;;;;4936741;29;20833;-83
2021/08/25 05:38:36;;;;;;;21.87;18.57;;;12.10;99.90;;;;;;4936696;29;20453;-83
2021/08/25 05:41:03;;;;;;;25.73;19.87;;;12.10;99.90;;;;;;4940667;29;20477;-84
2021/08/25 05:43:30;;;;;;;22.63;20.10;;;12.10;99.90;;;;;;4940649;29;20445;-84
2021/08/25 05:45:56;;;;;;;25.83;20.97;;;12.10;99.90;;;;;;4942101;29;20452;-84
2021/08/25 05:48:24;;;;;;;26.33;22.20;;;12.10;99.90;;;;;;4940225;29;20527;-84
2021/08/25 05:50:51;;;;;;;22.53;20.20;;;12.20;99.90;;;;;;4940237;29;20533;-83
2021/08/25 05:53:18;;;;;;;22.53;20.27;;;12.20;99.90;;;;;;4939581;29;20457;-83
2021/08/25 05:55:45;;;;;;;23.27;19.30;;;12.30;99.90;;;;;;4940426;29;20464;-84
2021/08/25 05:58:11;;;;;;;23.20;20.80;;;12.40;99.90;;;;;;4939840;29;20461;-83
2021/08/25 06:00:38;;;;;;;20.50;18.30;;;12.60;99.90;;;;;;4941375;29;20465;-82
2021/08/25 06:03:05;;;;;;;22.43;17.97;;;12.60;99.90;;;;;;4938176;29;20480;-84
2021/08/25 06:05:33;;;;;;;21.00;18.90;;;12.70;99.90;;;;;;4939881;29;20464;-84
2021/08/25 06:08:00;;;;;;;24.30;19.30;;;12.80;99.90;;;;;;4939964;29;20492;-84
2021/08/25 06:10:27;;;;;;;19.40;17.17;;;12.90;99.90;;;;;;4939904;29;20496;-84
2021/08/25 06:12:54;;;;;;;19.63;17.60;;;12.90;99.90;;;;;;4936840;29;20457;-83
2021/08/25 06:15:21;;;;;;;23.40;18.90;;;13.00;99.90;;;;;;4937872;29;20465;-84
2021/08/25 06:17:47;;;;;;;24.07;18.23;;;13.10;99.90;;;;;;4937162;29;20822;-83
2021/08/25 06:20:15;;;;;;;20.00;15.30;;;13.10;99.90;;;;;;4935831;29;20453;-83
2021/08/25 06:22:43;;;;;;;19.47;17.47;;;13.10;99.90;;;;;;4936688;29;20457;-84
2021/08/25 06:25:11;;;;;;;20.67;18.50;;;13.30;99.90;;;;;;4938822;29;20465;-83
2021/08/25 06:27:38;;;;;;;20.93;16.53;;;13.30;99.90;;;;;;4935762;29;20457;-83
2021/08/25 06:30:05;;;;;;;19.20;17.07;;;13.30;99.90;;;;;;4935371;29;20493;-83
2021/08/25 06:32:32;;;;;;;17.80;15.70;;;13.50;99.90;;;;;;4966736;23;20504;-85
2021/08/25 06:34:59;;;;;;;16.07;14.43;;;13.70;99.90;;;;;;4947509;29;20469;-84
2021/08/25 06:37:26;;;;;;;15.53;14.07;;;13.80;99.90;;;;;;4944561;28;20452;-84
2021/08/25 06:39:54;;;;;;;16.20;12.50;;;13.90;99.90;;;;;;4943611;29;20917;-84
2021/08/25 06:42:21;;;;;;;12.23;11.17;;;14.00;99.90;;;;;;4930507;29;20467;-84
2021/08/25 06:44:47;;;;;;;11.30;10.40;;;14.20;99.90;;;;;;4925012;29;20816;-84
2021/08/25 06:47:14;;;;;;;11.67;10.47;;;14.30;99.90;;;;;;4924395;29;20446;-84
2021/08/25 06:49:41;;;;;;;11.70;10.67;;;14.40;99.90;;;;;;4926927;29;21012;-84
2021/08/25 06:52:07;;;;;;;12.80;11.33;;;14.40;99.90;;;;;;4926029;29;20473;-84
2021/08/25 06:54:34;;;;;;;10.67;9.73;;;14.50;99.90;;;;;;4925017;29;20451;-84
2021/08/25 06:57:02;;;;;;;10.90;9.73;;;14.70;99.90;;;;;;4931675;29;20454;-84
2021/08/25 06:59:29;;;;;;;10.47;9.37;;;14.70;99.90;;;;;;4932087;29;20482;-84
2021/08/25 07:01:56;;;;;;;11.90;10.80;;;14.80;99.90;;;;;;4927481;29;20478;-83
2021/08/25 07:04:22;;;;;;;9.07;8.27;;;15.00;99.90;;;;;;4939190;29;20453;-83
2021/08/25 07:06:49;;;;;;;10.07;9.10;;;15.10;99.90;;;;;;4938504;29;20461;-82
2021/08/25 07:09:16;;;;;;;10.00;9.13;;;15.20;99.90;;;;;;4940092;29;20940;-82
2021/08/25 07:11:43;;;;;;;8.57;7.77;;;15.20;99.90;;;;;;4939254;29;20500;-84
2021/08/25 07:14:11;;;;;;;9.60;8.60;;;15.30;99.90;;;;;;4938425;29;20457;-82
2021/08/25 07:16:38;;;;;;;8.43;7.60;;;15.40;99.90;;;;;;4938966;29;20462;-83
2021/08/25 07:19:05;;;;;;;7.90;7.30;;;15.50;99.90;;;;;;4939269;29;20453;-84
2021/08/25 07:21:32;;;;;;;7.70;7.00;;;15.60;99.90;;;;;;4938599;29;20481;-84
2021/08/25 07:24:00;;;;;;;8.17;7.43;;;15.70;99.90;;;;;;4941807;29;20457;-86
2021/08/25 07:26:27;;;;;;;8.73;7.93;;;15.80;99.90;;;;;;4942949;29;20457;-86
2021/08/25 07:28:54;;;;;;;7.67;7.03;;;15.90;99.90;;;;;;4943709;29;20942;-83
2021/08/25 07:31:22;;;;;;;7.10;6.40;;;16.00;99.90;;;;;;4947202;29;21029;-84
2021/08/25 07:33:50;;;;;;;9.40;6.73;;;16.00;99.90;;;;;;4943484;29;20457;-84
2021/08/25 07:36:16;;;;;;;6.77;6.17;;;16.10;99.90;;;;;;4943589;29;20965;-83
2021/08/25 07:38:43;;;;;;;9.20;8.20;;;16.20;99.90;;;;;;4942823;29;20459;-84
2021/08/25 07:41:10;;;;;;;7.80;7.10;;;16.30;99.90;;;;;;4942318;29;20497;-84
2021/08/25 07:43:36;;;;;;;8.33;7.60;;;16.30;99.90;;;;;;4941629;29;20465;-84
2021/08/25 07:46:03;;;;;;;8.47;7.67;;;16.40;99.90;;;;;;4942566;29;20459;-84
2021/08/25 07:48:32;;;;;;;7.00;6.43;;;16.50;99.90;;;;;;4941711;29;20466;-84
2021/08/25 07:50:59;;;;;;;7.90;7.10;;;16.60;99.90;;;;;;4945171;29;20505;-83
2021/08/25 07:53:25;;;;;;;10.23;7.03;;;16.60;99.90;;;;;;4945102;29;20459;-84
2021/08/25 07:55:52;;;;;;;6.90;6.40;;;16.70;99.90;;;;;;4944460;29;20951;-84
2021/08/25 07:58:19;;;;;;;6.67;6.07;;;16.80;99.90;;;;;;4944691;29;20459;-84
2021/08/25 08:00:46;;;;;;;7.50;6.80;;;16.90;99.90;;;;;;4945053;29;20451;-83
2021/08/25 08:03:13;;;;;;;6.77;6.07;;;16.90;99.90;;;;;;4943953;29;20455;-84
2021/08/25 08:05:44;;;;;;;6.10;5.60;;;17.00;99.90;;;;;;4945640;29;20460;-84
2021/08/25 08:08:10;;;;;;;8.40;6.43;;;17.00;99.90;;;;;;4945523;29;20528;-84
2021/08/25 08:10:37;;;;;;;7.67;6.97;;;17.20;99.90;;;;;;4945005;29;20487;-84
2021/08/25 08:13:04;;;;;;;7.03;6.40;;;17.20;99.90;;;;;;4943924;29;20958;-84
2021/08/25 08:15:31;;;;;;;6.77;6.13;;;17.20;99.90;;;;;;4944677;29;20461;-84
2021/08/25 08:17:59;;;;;;;5.80;5.30;;;17.30;99.90;;;;;;4942575;29;20514;-83
2021/08/25 08:20:26;;;;;;;6.00;5.50;;;17.30;99.90;;;;;;4946101;29;20515;-84
2021/08/25 08:22:54;;;;;;;8.17;7.27;;;17.30;99.90;;;;;;4945513;29;20470;-85
2021/08/25 08:25:21;;;;;;;5.60;5.10;;;17.40;99.90;;;;;;4945914;29;20451;-84
2021/08/25 08:27:47;;;;;;;6.07;5.50;;;17.50;99.90;;;;;;4944631;29;20455;-84
2021/08/25 08:30:14;;;;;;;6.53;6.03;;;17.50;99.90;;;;;;4945157;29;20488;-84
2021/08/25 08:32:41;;;;;;;6.13;5.60;;;17.70;99.90;;;;;;4944654;29;20487;-84
2021/08/25 08:35:09;;;;;;;5.83;5.37;;;17.60;99.90;;;;;;4945692;29;20453;-84
2021/08/25 08:37:36;;;;;;;7.37;6.73;;;17.80;99.90;;;;;;4944651;29;20472;-84
2021/08/25 08:40:05;;;;;;;7.30;6.60;;;17.90;99.90;;;;;;4945410;29;20454;-84
2021/08/25 08:42:34;;;;;;;7.70;7.10;;;18.00;99.90;;;;;;4944858;29;20476;-84
2021/08/25 08:45:03;;;;;;;7.27;6.77;;;18.10;99.90;;;;;;4945851;29;20460;-84
2021/08/25 08:47:30;;;;;;;7.90;7.30;;;18.10;99.90;;;;;;4943514;29;20468;-84
2021/08/25 08:49:59;;;;;;;7.80;7.10;;;18.20;99.90;;;;;;4943982;29;20457;-84
2021/08/25 08:52:26;;;;;;;7.80;7.17;;;18.20;99.90;;;;;;4944587;29;20484;-84
2021/08/25 08:54:54;;;;;;;7.33;6.63;;;18.30;99.90;;;;;;4946173;29;20483;-84
2021/08/25 08:57:22;;;;;;;9.03;6.50;;;18.30;99.90;;;;;;4944459;29;20457;-84
2021/08/25 08:59:50;;;;;;;8.63;7.90;;;18.40;99.90;;;;;;4942270;29;20824;-83
2021/08/25 09:02:38;;;;;;;7.57;7.00;;;18.30;99.90;;;;;;4941629;29;20563;-84
2021/08/25 09:05:19;;;;;;;6.60;6.10;;;18.40;99.90;;;;;;4943908;29;20440;-84
2021/08/25 09:07:54;;;;;;;9.10;8.30;;;18.50;99.90;;;;;;4941919;29;20912;-83
2021/08/25 09:10:24;;;;;;;8.20;7.50;;;18.40;99.90;;;;;;4941180;29;20498;-84
2021/08/25 09:12:53;;;;;;;8.40;7.57;;;18.50;99.90;;;;;;4940464;29;20484;-84
2021/08/25 09:15:21;;;;;;;7.70;6.70;;;18.70;99.90;;;;;;4942960;29;20457;-84
2021/08/25 09:17:54;;;;;;;6.90;6.30;;;18.90;99.90;;;;;;4943914;29;20990;-84
2021/08/25 09:20:21;;;;;;;7.07;6.47;;;19.10;99.90;;;;;;4943450;29;20457;-84
2021/08/25 09:22:47;;;;;;;6.30;5.80;;;19.20;99.90;;;;;;4941583;29;20473;-83
2021/08/25 09:25:31;;;;;;;6.33;5.80;;;19.20;99.90;;;;;;4942585;29;20461;-83
2021/08/25 09:27:59;;;;;;;7.10;6.40;;;19.40;99.90;;;;;;4942739;29;20453;-84
2021/08/25 09:30:26;;;;;;;7.17;6.57;;;19.50;99.90;;;;;;4942649;29;20500;-83
2021/08/25 09:32:53;;;;;;;5.77;5.37;;;19.60;99.90;;;;;;4943596;29;20484;-83
2021/08/25 09:35:20;;;;;;;6.30;5.70;;;19.60;99.90;;;;;;4943054;29;20845;-84
2021/08/25 09:37:54;;;;;;;6.30;5.73;;;19.70;99.90;;;;;;4944438;29;20460;-84
2021/08/25 09:40:21;;;;;;;5.27;4.80;;;19.70;99.90;;;;;;4943352;29;20457;-84
2021/08/25 09:42:48;;;;;;;5.30;4.80;;;19.70;99.90;;;;;;4944475;29;20488;-84
2021/08/25 09:45:18;;;;;;;6.30;5.63;;;19.70;99.60;;;;;;4942716;29;20461;-84
2021/08/25 09:47:46;;;;;;;5.50;5.00;;;19.70;99.40;;;;;;4944954;29;20469;-84
2021/08/25 09:50:15;;;;;;;6.07;5.57;;;19.70;98.40;;;;;;4942678;29;20453;-84
2021/08/25 09:52:43;;;;;;;5.40;5.00;;;19.80;99.60;;;;;;4942269;29;20477;-84
2021/08/25 09:55:10;;;;;;;8.50;7.80;;;19.70;98.10;;;;;;4944534;29;20461;-84
2021/08/25 09:57:37;;;;;;;6.03;5.53;;;19.80;98.60;;;;;;4944954;29;20455;-84
2021/08/25 10:00:05;;;;;;;4.97;4.57;;;19.90;99.20;;;;;;4946385;29;20479;-84
2021/08/25 10:02:34;;;;;;;6.20;5.63;;;19.80;97.40;;;;;;4945761;29;20474;-84
2021/08/25 10:05:01;;;;;;;5.10;4.70;;;19.90;98.50;;;;;;4946563;29;20500;-84
2021/08/25 10:07:28;;;;;;;5.43;5.00;;;20.00;97.10;;;;;;4946519;29;20471;-84
2021/08/25 10:09:55;;;;;;;6.20;5.70;;;20.20;96.50;;;;;;4946381;29;20457;-84
2021/08/25 10:12:22;;;;;;;5.70;5.30;;;20.30;96.80;;;;;;4945424;29;20501;-84
2021/08/25 10:14:49;;;;;;;5.90;5.40;;;20.30;97.20;;;;;;4945399;29;20449;-84
2021/08/25 10:17:42;;;;;;;5.10;4.70;;;20.60;98.50;;;;;;4945569;29;20510;-84
2021/08/25 10:20:34;;;;;;;5.50;4.57;;;20.90;97.90;;;;;;4945592;29;20535;-84
2021/08/25 10:23:01;;;;;;;4.90;4.50;;;21.00;95.20;;;;;;4945404;29;20483;-84
2021/08/25 10:25:29;;;;;;;6.80;5.17;;;21.10;94.60;;;;;;4945684;29;20521;-84
2021/08/25 10:28:04;;;;;;;6.57;4.50;;;21.20;93.60;;;;;;4945393;29;20454;-84
2021/08/25 10:30:32;;;;;;;5.40;4.90;;;21.20;93.30;;;;;;4945683;29;20451;-84
2021/08/25 10:33:11;;;;;;;4.90;4.47;;;21.20;92.60;;;;;;4945164;29;20486;-84
2021/08/25 10:35:42;;;;;;;5.33;4.83;;;21.30;93.70;;;;;;4945947;29;20511;-84
2021/08/25 10:38:28;;;;;;;5.53;5.07;;;21.50;94.50;;;;;;4944758;29;20449;-84
2021/08/25 10:41:01;;;;;;;5.20;4.70;;;21.70;93.30;;;;;;4945835;29;20479;-83
2021/08/25 10:43:42;;;;;;;4.70;4.20;;;22.00;94.10;;;;;;4944746;29;20459;-84
2021/08/25 10:46:12;;;;;;;5.17;4.37;;;22.40;94.30;;;;;;4944691;29;20457;-83
2021/08/25 10:48:44;;;;;;;6.67;6.07;;;22.70;93.10;;;;;;4944501;29;20461;-84
2021/08/25 10:51:44;;;;;;;5.47;4.97;;;22.70;89.90;;;;;;4944844;29;20504;-84
2021/08/25 10:54:16;;;;;;;6.43;5.80;;;22.90;91.10;;;;;;4922934;29;20470;-84
2021/08/25 10:56:45;;;;;;;4.20;3.90;;;23.00;90.10;;;;;;4944450;29;20453;-84
2021/08/25 10:59:13;;;;;;;4.73;4.33;;;23.20;90.30;;;;;;4944164;29;20453;-83
2021/08/25 11:01:42;;;;;;;5.33;4.80;;;23.50;90.40;;;;;;4943704;29;20488;-84
2021/08/25 11:04:14;;;;;;;5.57;5.07;;;23.80;90.60;;;;;;4944041;29;20461;-84
2021/08/25 11:06:44;;;;;;;5.00;4.60;;;24.10;89.50;;;;;;4945632;29;20450;-84
2021/08/25 11:09:25;;;;;;;4.33;4.03;;;24.40;87.50;;;;;;4945117;29;20542;-84
2021/08/25 11:11:54;;;;;;;5.03;4.60;;;24.60;87.10;;;;;;4944016;29;20499;-84
2021/08/25 11:14:27;;;;;;;4.60;4.20;;;25.20;86.60;;;;;;4944439;29;20456;-84
2021/08/25 11:16:55;;;;;;;3.80;3.50;;;25.80;82.50;;;;;;4944628;29;20459;-84
2021/08/25 11:19:26;;;;;;;5.00;4.60;;;26.50;83.60;;;;;;4944158;29;20454;-84
2021/08/25 11:21:54;;;;;;;5.40;4.47;;;27.30;78.20;;;;;;4942745;29;20484;-83
2021/08/25 11:24:21;;;;;;;4.57;4.17;;;28.00;74.20;;;;;;4945645;29;20465;-82
2021/08/25 11:26:48;;;;;;;4.77;3.70;;;27.80;74.20;;;;;;4949105;29;20549;-82
2021/08/25 11:29:19;;;;;;;4.70;4.40;;;27.90;69.60;;;;;;4948223;29;21141;-82
2021/08/25 11:31:46;;;;;;;5.33;4.87;;;27.90;69.10;;;;;;4947099;29;20538;-82
2021/08/25 11:34:13;;;;;;;4.53;4.10;;;28.00;72.60;;;;;;4948173;29;20543;-82
2021/08/25 11:37:03;;;;;;;5.60;5.10;;;28.00;68.70;;;;;;4946937;29;20461;-82
2021/08/25 11:39:32;;;;;;;5.97;5.47;;;28.40;68.50;;;;;;4947442;29;20519;-82
2021/08/25 11:41:59;;;;;;;4.73;4.30;;;28.80;64.90;;;;;;4947122;29;20472;-82
2021/08/25 11:44:40;;;;;;;5.13;4.70;;;29.10;62.90;;;;;;4946740;29;20466;-82
2021/08/25 11:47:12;;;;;;;5.17;4.77;;;29.50;62.50;;;;;;4947494;29;20461;-82
2021/08/25 11:49:39;;;;;;;4.17;3.87;;;30.00;61.50;;;;;;4946726;29;20458;-82
2021/08/25 11:52:09;;;;;;;4.63;4.23;;;30.40;57.30;;;;;;4946824;29;20500;-82
2021/08/25 11:54:36;;;;;;;4.73;4.33;;;30.60;59.10;;;;;;4947337;29;20455;-82
2021/08/25 11:57:03;;;;;;;4.73;4.30;;;30.90;56.90;;;;;;4945728;29;20466;-83
2021/08/25 11:59:30;;;;;;;4.80;4.50;;;31.20;52.70;;;;;;4946389;29;20453;-82
2021/08/25 12:02:07;;;;;;;4.23;3.93;;;31.10;54.80;;;;;;4945896;29;20477;-82
2021/08/25 12:04:34;;;;;;;4.70;4.30;;;31.50;54.20;;;;;;4945997;29;20454;-82
2021/08/25 12:07:01;;;;;;;5.27;4.80;;;31.90;52.50;;;;;;4945416;29;20463;-82
2021/08/25 12:09:34;;;;;;;5.90;4.60;;;32.20;52.90;;;;;;4946273;29;20542;-83
2021/08/25 12:12:02;;;;;;;5.00;4.60;;;32.20;49.60;;;;;;4945121;29;20491;-83
2021/08/25 12:14:29;;;;;;;5.80;4.47;;;32.00;50.00;;;;;;4946127;29;20451;-82
2021/08/25 12:17:04;;;;;;;4.30;4.00;;;32.00;51.30;;;;;;4945528;29;20483;-82
2021/08/25 12:19:34;;;;;;;5.60;4.80;;;32.30;52.10;;;;;;4945119;29;20480;-83
2021/08/25 12:22:19;;;;;;;5.60;5.20;;;32.70;50.10;;;;;;4944522;29;20865;-83
2021/08/25 12:24:47;;;;;;;4.20;3.90;;;32.60;49.10;;;;;;4945806;29;20453;-83
2021/08/25 12:27:14;;;;;;;4.63;4.30;;;32.40;47.50;;;;;;4945348;29;20453;-82
2021/08/25 12:29:44;;;;;;;5.40;4.90;;;32.00;47.60;;;;;;4945700;29;20452;-82
2021/08/25 12:32:12;;;;;;;6.13;5.60;;;31.40;48.50;;;;;;4974514;23;20914;-82
2021/08/25 12:35:00;;;;;;;5.27;4.77;;;30.60;50.00;;;;;;4958960;29;20451;-82
2021/08/25 12:37:50;;;;;;;5.30;4.50;;;30.50;51.40;;;;;;4958573;28;20453;-82
2021/08/25 12:40:22;;;;;;;5.47;5.07;;;30.30;50.90;;;;;;4958812;28;20872;-82
2021/08/25 12:42:49;;;;;;;5.07;4.67;;;30.60;52.70;;;;;;4957263;29;20531;-82